createdAt,value
2018-08-12T00:00:25.039Z,99.90
2018-08-12T00:02:56.740Z,99.90
2018-08-12T00:05:27.227Z,99.90
2018-08-12T00:07:57.780Z,99.90
2018-08-12T00:10:28.159Z,99.90
2018-08-12T00:12:58.636Z,99.90
2018-08-12T00:20:28.724Z,99.90
2018-08-12T00:22:59.276Z,99.90
2018-08-12T00:25:29.629Z,99.90
2018-08-12T00:28:00.203Z,99.90
2018-08-12T00:30:30.986Z,99.90
2018-08-12T00:33:01.563Z,99.90
2018-08-12T00:35:31.910Z,99.90
2018-08-12T00:38:02.314Z,99.90
2018-08-12T00:40:32.688Z,99.90
2018-08-12T00:43:03.336Z,99.90
2018-08-12T00:45:33.852Z,99.90
2018-08-12T00:48:04.536Z,99.90
2018-08-12T00:50:34.904Z,99.90
2018-08-12T00:53:05.410Z,99.90
2018-08-12T00:55:35.939Z,99.90
2018-08-12T00:58:06.447Z,99.90
2018-08-12T01:00:37.044Z,99.90
2018-08-12T01:08:06.841Z,99.90
2018-08-12T01:10:37.292Z,99.90
2018-08-12T01:13:07.739Z,99.90
2018-08-12T01:15:38.272Z,99.90
2018-08-12T01:23:08.077Z,99.40
2018-08-12T01:25:38.432Z,99.10
2018-08-12T01:28:08.895Z,99.10
2018-08-12T01:30:39.471Z,98.90
2018-08-12T01:33:10.060Z,98.70
2018-08-12T01:35:40.508Z,98.50
2018-08-12T01:38:10.938Z,98.50
2018-08-12T01:40:41.489Z,98.30
2018-08-12T01:45:41.872Z,97.90
2018-08-12T01:48:12.404Z,97.70
2018-08-12T01:50:42.891Z,97.30
2018-08-12T01:53:13.204Z,97.10
2018-08-12T01:55:43.609Z,96.80
2018-08-12T01:58:14.193Z,96.50
2018-08-12T02:03:14.258Z,96.40
2018-08-12T02:05:44.558Z,96.20
2018-08-12T02:08:14.996Z,96.90
2018-08-12T02:10:45.432Z,96.60
2018-08-12T02:13:16.034Z,96.60
2018-08-12T02:18:16.060Z,97.30
2018-08-12T02:23:16.235Z,97.20
2018-08-12T02:25:46.803Z,97.30
2018-08-12T02:28:17.393Z,97.50
2018-08-12T02:30:47.874Z,97.70
2018-08-12T02:33:18.472Z,97.50
2018-08-12T02:35:48.956Z,97.40
2018-08-12T02:40:49.267Z,97.30
2018-08-12T02:43:19.747Z,97.20
2018-08-12T02:45:50.056Z,97.30
2018-08-12T02:48:20.568Z,97.30
2018-08-12T02:53:20.840Z,98.10
2018-08-12T02:55:52.225Z,98.80
2018-08-12T02:58:22.681Z,99.90
2018-08-12T03:03:22.849Z,99.90
2018-08-12T03:05:53.212Z,99.90
2018-08-12T03:08:23.701Z,99.90
2018-08-12T03:10:54.201Z,99.90
2018-08-12T03:18:23.939Z,99.90
2018-08-12T03:20:54.356Z,99.90
2018-08-12T03:23:24.784Z,99.90
2018-08-12T03:25:55.197Z,99.90
2018-08-12T03:28:25.678Z,99.90
2018-08-12T03:30:56.059Z,99.90
2018-08-12T03:33:26.675Z,99.90
2018-08-12T03:35:57.176Z,99.90
2018-08-12T03:38:27.812Z,99.90
2018-08-12T03:40:58.140Z,99.90
2018-08-12T03:43:28.750Z,99.90
2018-08-12T03:45:59.084Z,99.90
2018-08-12T03:48:29.773Z,99.90
2018-08-12T03:51:00.172Z,99.90
2018-08-12T03:53:30.660Z,99.90
2018-08-12T03:56:01.085Z,99.90
2018-08-12T03:58:31.680Z,99.90
2018-08-12T04:01:02.160Z,99.90
2018-08-12T04:03:32.670Z,99.90
2018-08-12T04:06:03.143Z,99.90
2018-08-12T04:08:33.592Z,99.90
2018-08-12T04:11:04.172Z,99.90
2018-08-12T04:13:34.643Z,99.90
2018-08-12T04:16:05.177Z,99.90
2018-08-12T04:18:35.733Z,99.90
2018-08-12T04:21:06.375Z,99.90
2018-08-12T04:23:36.860Z,99.90
2018-08-12T04:26:07.396Z,99.90
2018-08-12T04:28:37.958Z,99.90
2018-08-12T04:31:08.461Z,99.90
2018-08-12T04:41:08.246Z,99.90
2018-08-12T04:43:38.816Z,99.90
2018-08-12T04:46:09.464Z,99.90
2018-08-12T04:48:39.937Z,99.90
2018-08-12T04:51:10.299Z,99.90
2018-08-12T04:53:40.529Z,99.90
2018-08-12T04:56:11.107Z,99.90
2018-08-12T04:58:41.503Z,99.90
2018-08-12T05:03:41.878Z,99.90
2018-08-12T05:06:12.438Z,99.90
2018-08-12T05:08:42.877Z,99.90
2018-08-12T05:11:13.463Z,99.90
2018-08-12T05:13:44.069Z,99.90
2018-08-12T05:18:44.204Z,99.90
2018-08-12T05:23:44.267Z,99.90
2018-08-12T05:26:14.686Z,99.90
2018-08-12T05:28:45.193Z,99.90
2018-08-12T05:31:15.641Z,99.90
2018-08-12T05:33:46.028Z,99.40
2018-08-12T05:36:16.634Z,98.80
2018-08-12T05:38:47.184Z,98.40
2018-08-12T05:41:17.623Z,98.20
2018-08-12T05:43:48.061Z,97.20
2018-08-12T05:46:18.519Z,97.70
2018-08-12T05:48:48.938Z,99.90
2018-08-12T05:51:19.364Z,99.90
2018-08-12T05:53:49.840Z,99.90
2018-08-12T05:56:20.784Z,99.90
2018-08-12T05:58:51.099Z,99.10
2018-08-12T06:01:21.612Z,99.90
2018-08-12T06:03:52.400Z,99.30
2018-08-12T06:06:22.946Z,99.90
2018-08-12T06:08:53.467Z,98.80
2018-08-12T06:11:23.972Z,99.90
2018-08-12T06:16:24.442Z,99.90
2018-08-12T06:18:54.916Z,99.90
2018-08-12T06:21:25.367Z,98.90
2018-08-12T06:26:25.501Z,97.70
2018-08-12T06:28:55.803Z,97.90
2018-08-12T06:31:26.241Z,97.80
2018-08-12T06:36:26.160Z,92.10
2018-08-12T06:38:56.718Z,90.00
2018-08-12T06:46:26.635Z,88.30
2018-08-12T06:48:57.171Z,87.20
2018-08-12T06:51:27.671Z,81.80
2018-08-12T06:53:58.283Z,84.10
2018-08-12T06:56:28.784Z,86.30
2018-08-12T07:01:28.844Z,85.60
2018-08-12T07:03:59.193Z,87.20
2018-08-12T07:06:29.716Z,82.70
2018-08-12T07:09:00.437Z,82.30
2018-08-12T07:11:30.923Z,79.80
2018-08-12T07:16:31.032Z,78.90
2018-08-12T07:19:01.496Z,78.10
2018-08-12T07:24:01.916Z,76.70
2018-08-12T07:29:02.564Z,77.50
2018-08-12T07:31:33.239Z,79.30
2018-08-12T07:34:03.743Z,75.30
2018-08-12T07:39:04.251Z,75.30
2018-08-12T07:41:34.738Z,73.00
2018-08-12T07:44:05.216Z,73.20
2018-08-12T07:46:35.868Z,70.50
2018-08-12T07:51:35.900Z,69.10
2018-08-12T07:54:06.365Z,76.00
2018-08-12T07:56:36.851Z,72.30
2018-08-12T07:59:07.340Z,69.90
2018-08-12T08:01:37.953Z,69.70
2018-08-12T08:04:08.600Z,69.10
2018-08-12T08:06:39.160Z,61.30
2018-08-12T08:09:11.624Z,65.00
2018-08-12T08:11:42.806Z,70.50
2018-08-12T08:14:26.360Z,65.70
2018-08-12T08:19:51.657Z,62.70
2018-08-12T08:22:22.114Z,63.70
2018-08-12T08:24:52.584Z,69.50
2018-08-12T08:27:22.993Z,65.30
2018-08-12T08:29:53.640Z,59.60
2018-08-12T08:32:24.005Z,59.20
2018-08-12T08:34:54.430Z,57.70
2018-08-12T08:37:24.676Z,63.20
2018-08-12T08:39:55.105Z,61.60
2018-08-12T08:42:27.160Z,55.60
2018-08-12T08:44:57.587Z,59.50
2018-08-12T08:47:27.913Z,58.20
2018-08-12T08:49:58.436Z,59.20
2018-08-12T08:52:29.366Z,58.60
2018-08-12T08:54:59.758Z,60.00
2018-08-12T08:57:30.274Z,57.40
2018-08-12T09:00:01.144Z,56.80
2018-08-12T09:05:01.184Z,57.40
2018-08-12T09:12:52.401Z,56.30
2018-08-12T09:24:49.347Z,52.90
2018-08-12T10:10:11.873Z,45.90
2018-08-12T11:44:55.722Z,39.90
2018-08-12T13:14:25.519Z,33.40
2018-08-12T13:20:38.381Z,39.10
2018-08-12T13:23:31.456Z,32.70
2018-08-12T13:29:44.897Z,32.40
2018-08-12T15:13:24.614Z,31.60
2018-08-12T15:28:31.331Z,31.00
2018-08-12T15:31:36.785Z,31.40
2018-08-12T15:37:30.409Z,30.90
2018-08-12T15:43:34.200Z,33.50
2018-08-12T23:29:50.173Z,91.30
